sensor_id;sensor_type;location;lat;lon;timestamp;temperature;humidity
6293;DHT22;3179;54.350;10.102;2023-01-31T00:00:25;6.00;99.90
6293;DHT22;3179;54.350;10.102;2023-01-31T00:02:53;6.10;99.90
6293;DHT22;3179;54.350;10.102;2023-01-31T00:05:19;6.10;99.90
6293;DHT22;3179;54.350;10.102;2023-01-31T00:07:46;6.10;99.90
6293;DHT22;3179;54.350;10.102;2023-01-31T00:10:13;6.10;99.90
6293;DHT22;3179;54.350;10.102;2023-01-31T00:12:40;6.10;99.90
6293;DHT22;3179;54.350;10.102;2023-01-31T00:15:07;6.10;99.90
6293;DHT22;3179;54.350;10.102;2023-01-31T00:17:36;6.10;99.90
6293;DHT22;3179;54.350;10.102;2023-01-31T00:20:03;6.10;99.90
6293;DHT22;3179;54.350;10.102;2023-01-31T00:22:30;6.10;99.90
6293;DHT22;3179;54.350;10.102;2023-01-31T00:24:56;6.10;99.90
6293;DHT22;3179;54.350;10.102;2023-01-31T00:27:23;6.20;99.90
6293;DHT22;3179;54.350;10.102;2023-01-31T00:29:50;6.20;99.90
6293;DHT22;3179;54.350;10.102;2023-01-31T00:32:17;6.10;99.90
6293;DHT22;3179;54.350;10.102;2023-01-31T00:34:45;6.10;99.90
6293;DHT22;3179;54.350;10.102;2023-01-31T00:37:11;6.10;99.90
6293;DHT22;3179;54.350;10.102;2023-01-31T00:39:38;6.10;99.90
6293;DHT22;3179;54.350;10.102;2023-01-31T00:42:05;6.00;99.90
6293;DHT22;3179;54.350;10.102;2023-01-31T00:44:32;6.00;99.90
6293;DHT22;3179;54.350;10.102;2023-01-31T00:46:58;6.00;99.90
6293;DHT22;3179;54.350;10.102;2023-01-31T00:49:25;6.00;99.90
6293;DHT22;3179;54.350;10.102;2023-01-31T00:51:53;6.00;99.90
6293;DHT22;3179;54.350;10.102;2023-01-31T00:54:20;6.00;99.90
6293;DHT22;3179;54.350;10.102;2023-01-31T00:56:47;5.90;99.90
6293;DHT22;3179;54.350;10.102;2023-01-31T00:59:14;6.00;99.90
6293;DHT22;3179;54.350;10.102;2023-01-31T01:01:41;6.00;99.90
6293;DHT22;3179;54.350;10.102;2023-01-31T01:04:07;6.00;99.90
6293;DHT22;3179;54.350;10.102;2023-01-31T01:06:38;6.00;99.90
6293;DHT22;3179;54.350;10.102;2023-01-31T01:09:07;5.90;99.90
6293;DHT22;3179;54.350;10.102;2023-01-31T01:11:34;5.90;99.90
6293;DHT22;3179;54.350;10.102;2023-01-31T01:14:01;5.90;99.90
6293;DHT22;3179;54.350;10.102;2023-01-31T01:16:32;5.90;99.90
6293;DHT22;3179;54.350;10.102;2023-01-31T01:19:00;6.00;99.90
6293;DHT22;3179;54.350;10.102;2023-01-31T01:21:29;5.90;99.90
6293;DHT22;3179;54.350;10.102;2023-01-31T01:23:58;5.90;99.90
6293;DHT22;3179;54.350;10.102;2023-01-31T01:26:27;6.00;99.90
6293;DHT22;3179;54.350;10.102;2023-01-31T01:28:56;5.90;99.90
6293;DHT22;3179;54.350;10.102;2023-01-31T01:31:23;5.90;99.90
6293;DHT22;3179;54.350;10.102;2023-01-31T01:33:55;5.90;99.90
6293;DHT22;3179;54.350;10.102;2023-01-31T01:36:21;5.90;99.90
6293;DHT22;3179;54.350;10.102;2023-01-31T01:38:51;6.00;99.90
6293;DHT22;3179;54.350;10.102;2023-01-31T01:41:19;6.00;99.90
6293;DHT22;3179;54.350;10.102;2023-01-31T01:43:50;6.00;99.90
6293;DHT22;3179;54.350;10.102;2023-01-31T01:46:22;6.00;99.90
6293;DHT22;3179;54.350;10.102;2023-01-31T01:48:54;6.00;99.90
6293;DHT22;3179;54.350;10.102;2023-01-31T01:51:23;6.00;99.90
6293;DHT22;3179;54.350;10.102;2023-01-31T01:53:53;6.00;99.90
6293;DHT22;3179;54.350;10.102;2023-01-31T01:56:26;6.00;99.90
6293;DHT22;3179;54.350;10.102;2023-01-31T01:59:02;6.00;99.90
6293;DHT22;3179;54.350;10.102;2023-01-31T02:01:34;6.00;99.90
6293;DHT22;3179;54.350;10.102;2023-01-31T02:04:02;6.00;99.90
6293;DHT22;3179;54.350;10.102;2023-01-31T02:06:30;6.00;99.90
6293;DHT22;3179;54.350;10.102;2023-01-31T02:08:57;6.00;99.90
6293;DHT22;3179;54.350;10.102;2023-01-31T02:11:27;5.90;99.90
6293;DHT22;3179;54.350;10.102;2023-01-31T02:14:00;6.00;99.90
6293;DHT22;3179;54.350;10.102;2023-01-31T02:16:27;5.90;99.90
6293;DHT22;3179;54.350;10.102;2023-01-31T02:18:55;5.90;99.90
6293;DHT22;3179;54.350;10.102;2023-01-31T02:24:59;5.90;99.90
6293;DHT22;3179;54.350;10.102;2023-01-31T02:31:17;5.90;99.90
6293;DHT22;3179;54.350;10.102;2023-01-31T02:33:51;5.80;99.90
6293;DHT22;3179;54.350;10.102;2023-01-31T02:36:28;5.80;99.90
6293;DHT22;3179;54.350;10.102;2023-01-31T02:39:05;5.90;99.90
6293;DHT22;3179;54.350;10.102;2023-01-31T02:41:38;5.90;99.90
6293;DHT22;3179;54.350;10.102;2023-01-31T02:44:12;5.90;99.90
6293;DHT22;3179;54.350;10.102;2023-01-31T02:47:01;5.90;99.90
6293;DHT22;3179;54.350;10.102;2023-01-31T02:49:36;5.90;99.90
6293;DHT22;3179;54.350;10.102;2023-01-31T02:52:15;5.90;99.90
6293;DHT22;3179;54.350;10.102;2023-01-31T02:54:45;5.90;99.90
6293;DHT22;3179;54.350;10.102;2023-01-31T02:57:34;5.90;99.90
6293;DHT22;3179;54.350;10.102;2023-01-31T03:00:02;6.00;99.90
6293;DHT22;3179;54.350;10.102;2023-01-31T03:02:29;6.00;99.90
6293;DHT22;3179;54.350;10.102;2023-01-31T03:04:58;5.90;99.90
6293;DHT22;3179;54.350;10.102;2023-01-31T03:07:27;5.90;99.90
6293;DHT22;3179;54.350;10.102;2023-01-31T03:10:07;6.00;99.90
6293;DHT22;3179;54.350;10.102;2023-01-31T03:12:44;6.00;99.90
6293;DHT22;3179;54.350;10.102;2023-01-31T03:15:23;6.00;99.90
6293;DHT22;3179;54.350;10.102;2023-01-31T03:18:15;6.00;99.90
6293;DHT22;3179;54.350;10.102;2023-01-31T03:20:48;6.00;99.90
6293;DHT22;3179;54.350;10.102;2023-01-31T03:23:18;6.00;99.90
6293;DHT22;3179;54.350;10.102;2023-01-31T03:25:47;6.00;99.90
6293;DHT22;3179;54.350;10.102;2023-01-31T03:28:18;6.00;99.90
6293;DHT22;3179;54.350;10.102;2023-01-31T03:30:48;6.00;99.90
6293;DHT22;3179;54.350;10.102;2023-01-31T03:33:20;6.00;99.90
6293;DHT22;3179;54.350;10.102;2023-01-31T03:35:55;6.00;99.90
6293;DHT22;3179;54.350;10.102;2023-01-31T03:38:26;5.90;99.90
6293;DHT22;3179;54.350;10.102;2023-01-31T03:40:59;5.90;99.90
6293;DHT22;3179;54.350;10.102;2023-01-31T03:43:31;5.90;99.90
6293;DHT22;3179;54.350;10.102;2023-01-31T03:46:01;5.90;99.90
6293;DHT22;3179;54.350;10.102;2023-01-31T03:48:32;6.00;99.90
6293;DHT22;3179;54.350;10.102;2023-01-31T03:51:05;5.90;99.90
6293;DHT22;3179;54.350;10.102;2023-01-31T03:53:36;5.90;99.90
6293;DHT22;3179;54.350;10.102;2023-01-31T03:56:07;5.90;99.90
6293;DHT22;3179;54.350;10.102;2023-01-31T03:58:40;6.00;99.90
6293;DHT22;3179;54.350;10.102;2023-01-31T04:01:10;6.00;99.90
6293;DHT22;3179;54.350;10.102;2023-01-31T04:03:41;6.00;99.90
6293;DHT22;3179;54.350;10.102;2023-01-31T04:06:10;6.00;99.90
6293;DHT22;3179;54.350;10.102;2023-01-31T04:08:38;6.00;99.90
6293;DHT22;3179;54.350;10.102;2023-01-31T04:11:08;6.00;99.90
6293;DHT22;3179;54.350;10.102;2023-01-31T04:13:35;6.00;99.90
6293;DHT22;3179;54.350;10.102;2023-01-31T04:16:02;6.10;99.90
6293;DHT22;3179;54.350;10.102;2023-01-31T04:18:29;6.00;99.90
6293;DHT22;3179;54.350;10.102;2023-01-31T04:20:56;6.10;99.90
6293;DHT22;3179;54.350;10.102;2023-01-31T04:23:24;6.00;99.90
6293;DHT22;3179;54.350;10.102;2023-01-31T04:25:52;6.00;99.90
6293;DHT22;3179;54.350;10.102;2023-01-31T04:28:19;6.00;99.90
6293;DHT22;3179;54.350;10.102;2023-01-31T04:30:49;6.10;99.90
6293;DHT22;3179;54.350;10.102;2023-01-31T04:33:17;6.00;99.90
6293;DHT22;3179;54.350;10.102;2023-01-31T04:35:43;6.10;99.90
6293;DHT22;3179;54.350;10.102;2023-01-31T04:38:10;6.10;99.90
6293;DHT22;3179;54.350;10.102;2023-01-31T04:40:38;6.10;99.90
6293;DHT22;3179;54.350;10.102;2023-01-31T04:43:05;6.10;99.90
6293;DHT22;3179;54.350;10.102;2023-01-31T04:45:32;6.00;99.90
6293;DHT22;3179;54.350;10.102;2023-01-31T04:47:58;6.00;99.90
6293;DHT22;3179;54.350;10.102;2023-01-31T04:50:25;6.00;99.90
6293;DHT22;3179;54.350;10.102;2023-01-31T04:52:52;6.00;99.90
6293;DHT22;3179;54.350;10.102;2023-01-31T04:55:20;6.00;99.90
6293;DHT22;3179;54.350;10.102;2023-01-31T04:57:48;6.00;99.90
6293;DHT22;3179;54.350;10.102;2023-01-31T05:00:16;6.10;99.90
6293;DHT22;3179;54.350;10.102;2023-01-31T05:02:44;6.10;99.90
6293;DHT22;3179;54.350;10.102;2023-01-31T05:05:11;6.00;99.90
6293;DHT22;3179;54.350;10.102;2023-01-31T05:07:38;6.00;99.90
6293;DHT22;3179;54.350;10.102;2023-01-31T05:10:05;6.00;99.90
6293;DHT22;3179;54.350;10.102;2023-01-31T05:12:32;6.00;99.90
6293;DHT22;3179;54.350;10.102;2023-01-31T05:15:00;6.00;99.90
6293;DHT22;3179;54.350;10.102;2023-01-31T05:17:28;6.10;99.90
6293;DHT22;3179;54.350;10.102;2023-01-31T05:19:55;6.10;99.90
6293;DHT22;3179;54.350;10.102;2023-01-31T05:22:22;6.10;99.90
6293;DHT22;3179;54.350;10.102;2023-01-31T05:24:49;6.10;99.90
6293;DHT22;3179;54.350;10.102;2023-01-31T05:27:16;6.10;99.90
6293;DHT22;3179;54.350;10.102;2023-01-31T05:29:44;6.10;99.90
6293;DHT22;3179;54.350;10.102;2023-01-31T05:32:12;6.10;99.90
6293;DHT22;3179;54.350;10.102;2023-01-31T05:34:39;6.00;99.90
6293;DHT22;3179;54.350;10.102;2023-01-31T05:37:06;6.10;99.90
6293;DHT22;3179;54.350;10.102;2023-01-31T05:39:33;6.00;99.90
6293;DHT22;3179;54.350;10.102;2023-01-31T05:42:00;6.10;99.90
6293;DHT22;3179;54.350;10.102;2023-01-31T05:44:26;6.10;99.90
6293;DHT22;3179;54.350;10.102;2023-01-31T05:46:53;6.10;99.90
6293;DHT22;3179;54.350;10.102;2023-01-31T05:49:21;6.10;99.90
6293;DHT22;3179;54.350;10.102;2023-01-31T05:51:48;6.10;99.90
6293;DHT22;3179;54.350;10.102;2023-01-31T05:54:15;6.10;99.90
6293;DHT22;3179;54.350;10.102;2023-01-31T05:56:42;6.10;99.90
6293;DHT22;3179;54.350;10.102;2023-01-31T05:59:08;6.10;99.90
6293;DHT22;3179;54.350;10.102;2023-01-31T06:01:35;6.10;99.90
6293;DHT22;3179;54.350;10.102;2023-01-31T06:04:02;6.10;99.90
6293;DHT22;3179;54.350;10.102;2023-01-31T06:06:30;6.10;99.90
6293;DHT22;3179;54.350;10.102;2023-01-31T06:08:57;6.10;99.90
6293;DHT22;3179;54.350;10.102;2023-01-31T06:11:24;6.10;99.90
6293;DHT22;3179;54.350;10.102;2023-01-31T06:13:50;6.10;99.90
6293;DHT22;3179;54.350;10.102;2023-01-31T06:16:19;6.10;99.90
6293;DHT22;3179;54.350;10.102;2023-01-31T06:18:45;6.10;99.90
6293;DHT22;3179;54.350;10.102;2023-01-31T06:21:12;6.10;99.90
6293;DHT22;3179;54.350;10.102;2023-01-31T06:23:42;6.10;99.90
6293;DHT22;3179;54.350;10.102;2023-01-31T06:26:10;6.10;99.90
6293;DHT22;3179;54.350;10.102;2023-01-31T06:28:37;6.10;99.90
6293;DHT22;3179;54.350;10.102;2023-01-31T06:31:07;6.10;99.90
6293;DHT22;3179;54.350;10.102;2023-01-31T06:33:34;6.10;99.90
6293;DHT22;3179;54.350;10.102;2023-01-31T06:36:01;6.10;99.90
6293;DHT22;3179;54.350;10.102;2023-01-31T06:38:28;6.10;99.90
6293;DHT22;3179;54.350;10.102;2023-01-31T06:40:56;6.10;99.90
6293;DHT22;3179;54.350;10.102;2023-01-31T06:43:23;6.10;99.90
6293;DHT22;3179;54.350;10.102;2023-01-31T06:45:50;6.10;99.90
6293;DHT22;3179;54.350;10.102;2023-01-31T06:48:17;6.10;99.90
6293;DHT22;3179;54.350;10.102;2023-01-31T06:50:45;6.10;99.90
6293;DHT22;3179;54.350;10.102;2023-01-31T06:53:12;6.10;99.90
6293;DHT22;3179;54.350;10.102;2023-01-31T06:55:38;6.10;99.90
6293;DHT22;3179;54.350;10.102;2023-01-31T06:58:07;6.10;99.90
6293;DHT22;3179;54.350;10.102;2023-01-31T07:00:33;6.20;99.90
6293;DHT22;3179;54.350;10.102;2023-01-31T07:03:00;6.20;99.90
6293;DHT22;3179;54.350;10.102;2023-01-31T07:05:27;6.10;99.90
6293;DHT22;3179;54.350;10.102;2023-01-31T07:07:54;6.20;99.90
6293;DHT22;3179;54.350;10.102;2023-01-31T07:10:21;6.20;99.90
6293;DHT22;3179;54.350;10.102;2023-01-31T07:12:48;6.20;99.90
6293;DHT22;3179;54.350;10.102;2023-01-31T07:15:16;6.20;99.90
6293;DHT22;3179;54.350;10.102;2023-01-31T07:17:43;6.20;99.90
6293;DHT22;3179;54.350;10.102;2023-01-31T07:20:11;6.20;99.90
6293;DHT22;3179;54.350;10.102;2023-01-31T07:22:37;6.30;99.90
6293;DHT22;3179;54.350;10.102;2023-01-31T07:25:05;6.30;99.90
6293;DHT22;3179;54.350;10.102;2023-01-31T07:27:32;6.30;99.90
6293;DHT22;3179;54.350;10.102;2023-01-31T07:29:58;6.30;99.90
6293;DHT22;3179;54.350;10.102;2023-01-31T07:32:29;6.30;99.90
6293;DHT22;3179;54.350;10.102;2023-01-31T07:34:56;6.30;99.90
6293;DHT22;3179;54.350;10.102;2023-01-31T07:37:23;6.30;99.90
6293;DHT22;3179;54.350;10.102;2023-01-31T07:39:49;6.30;99.90
6293;DHT22;3179;54.350;10.102;2023-01-31T07:42:16;6.30;99.90
6293;DHT22;3179;54.350;10.102;2023-01-31T07:44:43;6.30;99.90
6293;DHT22;3179;54.350;10.102;2023-01-31T07:47:10;6.40;99.90
6293;DHT22;3179;54.350;10.102;2023-01-31T07:49:38;6.40;99.90
6293;DHT22;3179;54.350;10.102;2023-01-31T07:52:04;6.40;99.90
6293;DHT22;3179;54.350;10.102;2023-01-31T07:54:31;6.40;99.90
6293;DHT22;3179;54.350;10.102;2023-01-31T07:56:58;6.40;99.90
6293;DHT22;3179;54.350;10.102;2023-01-31T07:59:25;6.40;99.90
6293;DHT22;3179;54.350;10.102;2023-01-31T08:01:52;6.50;99.90
6293;DHT22;3179;54.350;10.102;2023-01-31T08:04:37;6.50;99.90
6293;DHT22;3179;54.350;10.102;2023-01-31T08:07:04;6.50;99.90
6293;DHT22;3179;54.350;10.102;2023-01-31T08:09:31;6.40;99.90
6293;DHT22;3179;54.350;10.102;2023-01-31T08:11:58;6.50;99.90
6293;DHT22;3179;54.350;10.102;2023-01-31T08:14:25;6.40;99.90
6293;DHT22;3179;54.350;10.102;2023-01-31T08:16:53;6.50;99.90
6293;DHT22;3179;54.350;10.102;2023-01-31T08:19:20;6.50;99.90
6293;DHT22;3179;54.350;10.102;2023-01-31T08:21:48;6.50;99.90
6293;DHT22;3179;54.350;10.102;2023-01-31T08:24:15;6.50;99.90
6293;DHT22;3179;54.350;10.102;2023-01-31T08:26:42;6.50;99.90
6293;DHT22;3179;54.350;10.102;2023-01-31T08:29:09;6.50;99.90
6293;DHT22;3179;54.350;10.102;2023-01-31T08:31:36;6.60;99.90
6293;DHT22;3179;54.350;10.102;2023-01-31T08:34:02;6.60;99.90
6293;DHT22;3179;54.350;10.102;2023-01-31T08:36:30;6.60;99.90
6293;DHT22;3179;54.350;10.102;2023-01-31T08:38:58;6.60;99.90
6293;DHT22;3179;54.350;10.102;2023-01-31T08:41:26;6.60;99.90
6293;DHT22;3179;54.350;10.102;2023-01-31T08:43:54;6.60;99.90
6293;DHT22;3179;54.350;10.102;2023-01-31T08:46:22;6.60;99.90
6293;DHT22;3179;54.350;10.102;2023-01-31T08:48:49;6.50;99.90
6293;DHT22;3179;54.350;10.102;2023-01-31T08:51:16;6.50;99.90
6293;DHT22;3179;54.350;10.102;2023-01-31T08:53:43;6.50;99.90
6293;DHT22;3179;54.350;10.102;2023-01-31T08:56:12;6.50;99.90
6293;DHT22;3179;54.350;10.102;2023-01-31T08:58:42;6.60;99.90
6293;DHT22;3179;54.350;10.102;2023-01-31T09:01:11;6.50;99.90
6293;DHT22;3179;54.350;10.102;2023-01-31T09:03:38;6.50;99.90
6293;DHT22;3179;54.350;10.102;2023-01-31T09:06:07;6.60;99.90
6293;DHT22;3179;54.350;10.102;2023-01-31T09:08:34;6.60;99.90
6293;DHT22;3179;54.350;10.102;2023-01-31T09:11:01;6.60;99.90
6293;DHT22;3179;54.350;10.102;2023-01-31T09:13:30;6.60;99.90
6293;DHT22;3179;54.350;10.102;2023-01-31T09:15:57;6.60;99.90
6293;DHT22;3179;54.350;10.102;2023-01-31T09:18:24;6.60;99.90
6293;DHT22;3179;54.350;10.102;2023-01-31T09:20:51;6.60;99.90
6293;DHT22;3179;54.350;10.102;2023-01-31T09:23:18;6.60;99.90
6293;DHT22;3179;54.350;10.102;2023-01-31T09:25:51;6.60;99.90
6293;DHT22;3179;54.350;10.102;2023-01-31T09:28:18;6.60;99.90
6293;DHT22;3179;54.350;10.102;2023-01-31T09:30:47;6.60;99.90
6293;DHT22;3179;54.350;10.102;2023-01-31T09:33:14;6.60;99.90
6293;DHT22;3179;54.350;10.102;2023-01-31T09:35:41;6.60;99.90
6293;DHT22;3179;54.350;10.102;2023-01-31T09:38:08;6.60;99.90
6293;DHT22;3179;54.350;10.102;2023-01-31T09:40:37;6.60;99.90
6293;DHT22;3179;54.350;10.102;2023-01-31T09:43:07;6.60;99.90
6293;DHT22;3179;54.350;10.102;2023-01-31T09:45:39;6.60;99.90
6293;DHT22;3179;54.350;10.102;2023-01-31T09:48:15;6.70;99.90
6293;DHT22;3179;54.350;10.102;2023-01-31T09:50:46;6.70;99.90
6293;DHT22;3179;54.350;10.102;2023-01-31T09:53:18;6.70;99.90
6293;DHT22;3179;54.350;10.102;2023-01-31T09:55:52;6.70;99.90
6293;DHT22;3179;54.350;10.102;2023-01-31T09:58:29;6.70;99.90
6293;DHT22;3179;54.350;10.102;2023-01-31T10:01:05;6.70;99.90
6293;DHT22;3179;54.350;10.102;2023-01-31T10:03:50;6.70;99.90
6293;DHT22;3179;54.350;10.102;2023-01-31T10:06:23;6.70;99.90
6293;DHT22;3179;54.350;10.102;2023-01-31T10:08:55;6.70;99.90
6293;DHT22;3179;54.350;10.102;2023-01-31T10:11:30;6.70;99.90
6293;DHT22;3179;54.350;10.102;2023-01-31T10:14:03;6.80;99.90
6293;DHT22;3179;54.350;10.102;2023-01-31T10:16:35;6.80;99.90
6293;DHT22;3179;54.350;10.102;2023-01-31T10:19:06;6.80;99.90
6293;DHT22;3179;54.350;10.102;2023-01-31T10:21:38;6.80;99.90
6293;DHT22;3179;54.350;10.102;2023-01-31T10:24:12;6.80;99.90
6293;DHT22;3179;54.350;10.102;2023-01-31T10:26:41;6.90;99.90
6293;DHT22;3179;54.350;10.102;2023-01-31T10:29:14;6.90;99.90
6293;DHT22;3179;54.350;10.102;2023-01-31T10:31:45;6.90;99.90
6293;DHT22;3179;54.350;10.102;2023-01-31T10:34:20;6.90;99.90
6293;DHT22;3179;54.350;10.102;2023-01-31T10:36:51;6.90;99.90
6293;DHT22;3179;54.350;10.102;2023-01-31T10:39:23;6.90;99.90
6293;DHT22;3179;54.350;10.102;2023-01-31T10:42:05;6.90;99.90
6293;DHT22;3179;54.350;10.102;2023-01-31T10:44:41;6.90;99.90
6293;DHT22;3179;54.350;10.102;2023-01-31T10:47:12;7.00;99.90
6293;DHT22;3179;54.350;10.102;2023-01-31T10:49:43;7.00;99.90
6293;DHT22;3179;54.350;10.102;2023-01-31T10:52:18;7.00;99.90
6293;DHT22;3179;54.350;10.102;2023-01-31T10:54:58;7.00;99.90
6293;DHT22;3179;54.350;10.102;2023-01-31T10:57:28;7.00;99.90
6293;DHT22;3179;54.350;10.102;2023-01-31T10:59:55;7.00;99.90
6293;DHT22;3179;54.350;10.102;2023-01-31T11:02:24;7.10;99.90
6293;DHT22;3179;54.350;10.102;2023-01-31T11:04:54;7.10;99.90
6293;DHT22;3179;54.350;10.102;2023-01-31T11:07:22;7.10;99.90
6293;DHT22;3179;54.350;10.102;2023-01-31T11:09:50;7.10;99.90
6293;DHT22;3179;54.350;10.102;2023-01-31T11:12:19;7.10;99.90
6293;DHT22;3179;54.350;10.102;2023-01-31T11:15:03;7.20;99.90
6293;DHT22;3179;54.350;10.102;2023-01-31T11:17:32;7.20;99.90
6293;DHT22;3179;54.350;10.102;2023-01-31T11:20:03;7.20;99.90
6293;DHT22;3179;54.350;10.102;2023-01-31T11:22:32;7.20;99.90
6293;DHT22;3179;54.350;10.102;2023-01-31T11:25:02;7.20;99.90
6293;DHT22;3179;54.350;10.102;2023-01-31T11:27:34;7.20;99.90
6293;DHT22;3179;54.350;10.102;2023-01-31T11:30:04;7.20;99.90
6293;DHT22;3179;54.350;10.102;2023-01-31T11:32:34;7.20;99.90
6293;DHT22;3179;54.350;10.102;2023-01-31T11:35:06;7.30;99.90
6293;DHT22;3179;54.350;10.102;2023-01-31T11:37:49;7.30;99.90
6293;DHT22;3179;54.350;10.102;2023-01-31T11:40:19;7.30;99.90
6293;DHT22;3179;54.350;10.102;2023-01-31T11:42:51;7.30;99.90
6293;DHT22;3179;54.350;10.102;2023-01-31T11:45:20;7.30;99.90
6293;DHT22;3179;54.350;10.102;2023-01-31T11:47:49;7.30;99.90
6293;DHT22;3179;54.350;10.102;2023-01-31T11:50:23;7.40;99.90
6293;DHT22;3179;54.350;10.102;2023-01-31T11:52:54;7.40;99.90
6293;DHT22;3179;54.350;10.102;2023-01-31T11:55:22;7.40;99.90
6293;DHT22;3179;54.350;10.102;2023-01-31T11:57:55;7.40;99.90
6293;DHT22;3179;54.350;10.102;2023-01-31T12:00:25;7.40;99.90
6293;DHT22;3179;54.350;10.102;2023-01-31T12:03:01;7.50;99.90
6293;DHT22;3179;54.350;10.102;2023-01-31T12:05:37;7.50;99.90
6293;DHT22;3179;54.350;10.102;2023-01-31T12:08:08;7.50;99.90
6293;DHT22;3179;54.350;10.102;2023-01-31T12:10:51;7.50;99.90
6293;DHT22;3179;54.350;10.102;2023-01-31T12:13:20;7.50;99.90
6293;DHT22;3179;54.350;10.102;2023-01-31T12:15:56;7.60;99.90
6293;DHT22;3179;54.350;10.102;2023-01-31T12:18:47;7.60;99.90
6293;DHT22;3179;54.350;10.102;2023-01-31T12:21:34;7.60;99.90
6293;DHT22;3179;54.350;10.102;2023-01-31T12:24:14;7.60;99.90
6293;DHT22;3179;54.350;10.102;2023-01-31T12:26:46;7.60;99.90
6293;DHT22;3179;54.350;10.102;2023-01-31T12:29:32;7.60;99.90
6293;DHT22;3179;54.350;10.102;2023-01-31T12:32:22;7.60;99.90
6293;DHT22;3179;54.350;10.102;2023-01-31T12:35:06;7.60;99.90
6293;DHT22;3179;54.350;10.102;2023-01-31T12:37:43;7.70;99.90
6293;DHT22;3179;54.350;10.102;2023-01-31T12:40:33;7.70;99.90
6293;DHT22;3179;54.350;10.102;2023-01-31T12:43:08;7.70;99.90
6293;DHT22;3179;54.350;10.102;2023-01-31T12:45:57;7.70;99.90
6293;DHT22;3179;54.350;10.102;2023-01-31T12:48:41;7.80;99.90
6293;DHT22;3179;54.350;10.102;2023-01-31T12:51:24;7.80;99.90
6293;DHT22;3179;54.350;10.102;2023-01-31T12:54:02;7.80;99.90
6293;DHT22;3179;54.350;10.102;2023-01-31T12:56:41;7.80;99.90
6293;DHT22;3179;54.350;10.102;2023-01-31T12:59:25;7.80;99.90
6293;DHT22;3179;54.350;10.102;2023-01-31T13:01:58;7.80;99.90
6293;DHT22;3179;54.350;10.102;2023-01-31T13:04:37;7.80;99.90
6293;DHT22;3179;54.350;10.102;2023-01-31T13:07:11;7.80;99.90
6293;DHT22;3179;54.350;10.102;2023-01-31T13:09:42;7.80;99.90
6293;DHT22;3179;54.350;10.102;2023-01-31T13:12:13;7.80;99.90
6293;DHT22;3179;54.350;10.102;2023-01-31T13:14:43;7.80;99.90
6293;DHT22;3179;54.350;10.102;2023-01-31T13:17:13;7.80;99.90
6293;DHT22;3179;54.350;10.102;2023-01-31T13:19:45;7.90;99.90
6293;DHT22;3179;54.350;10.102;2023-01-31T13:22:19;7.90;99.90
6293;DHT22;3179;54.350;10.102;2023-01-31T13:24:51;7.90;99.90
6293;DHT22;3179;54.350;10.102;2023-01-31T13:27:23;8.00;99.90
6293;DHT22;3179;54.350;10.102;2023-01-31T13:29:55;8.00;99.90
6293;DHT22;3179;54.350;10.102;2023-01-31T13:32:27;8.00;99.90
6293;DHT22;3179;54.350;10.102;2023-01-31T13:34:59;8.10;99.90
6293;DHT22;3179;54.350;10.102;2023-01-31T13:37:28;8.10;99.90
6293;DHT22;3179;54.350;10.102;2023-01-31T13:40:00;8.10;99.90
6293;DHT22;3179;54.350;10.102;2023-01-31T13:42:28;8.10;99.90
6293;DHT22;3179;54.350;10.102;2023-01-31T13:45:04;8.10;99.90
6293;DHT22;3179;54.350;10.102;2023-01-31T13:47:35;8.10;99.90
6293;DHT22;3179;54.350;10.102;2023-01-31T13:50:24;8.20;99.90
6293;DHT22;3179;54.350;10.102;2023-01-31T13:52:54;8.20;99.90
6293;DHT22;3179;54.350;10.102;2023-01-31T13:55:33;8.20;99.90
6293;DHT22;3179;54.350;10.102;2023-01-31T13:58:04;8.20;99.90
6293;DHT22;3179;54.350;10.102;2023-01-31T14:00:38;8.20;99.90
6293;DHT22;3179;54.350;10.102;2023-01-31T14:03:07;8.20;99.90
6293;DHT22;3179;54.350;10.102;2023-01-31T14:05:54;8.20;99.90
6293;DHT22;3179;54.350;10.102;2023-01-31T14:08:55;8.20;99.90
6293;DHT22;3179;54.350;10.102;2023-01-31T14:11:34;8.10;99.90
6293;DHT22;3179;54.350;10.102;2023-01-31T14:14:20;8.10;99.90
6293;DHT22;3179;54.350;10.102;2023-01-31T14:16:47;8.10;99.90
6293;DHT22;3179;54.350;10.102;2023-01-31T14:20:00;8.10;99.90
6293;DHT22;3179;54.350;10.102;2023-01-31T14:22:28;8.10;99.90
6293;DHT22;3179;54.350;10.102;2023-01-31T14:24:59;8.20;99.90
6293;DHT22;3179;54.350;10.102;2023-01-31T14:27:31;8.10;99.90
6293;DHT22;3179;54.350;10.102;2023-01-31T14:30:25;8.20;99.90
6293;DHT22;3179;54.350;10.102;2023-01-31T14:33:22;8.20;99.90
6293;DHT22;3179;54.350;10.102;2023-01-31T14:36:23;8.10;99.90
6293;DHT22;3179;54.350;10.102;2023-01-31T14:39:20;8.10;99.90
6293;DHT22;3179;54.350;10.102;2023-01-31T14:45:03;8.10;99.90
6293;DHT22;3179;54.350;10.102;2023-01-31T14:47:46;8.10;99.90
6293;DHT22;3179;54.350;10.102;2023-01-31T14:50:28;8.10;99.90
6293;DHT22;3179;54.350;10.102;2023-01-31T14:53:09;8.10;99.90
6293;DHT22;3179;54.350;10.102;2023-01-31T14:55:46;8.10;99.90
6293;DHT22;3179;54.350;10.102;2023-01-31T14:58:18;8.10;99.90
6293;DHT22;3179;54.350;10.102;2023-01-31T15:00:49;8.10;99.90
6293;DHT22;3179;54.350;10.102;2023-01-31T15:03:20;8.10;99.90
6293;DHT22;3179;54.350;10.102;2023-01-31T15:05:50;8.10;99.90
6293;DHT22;3179;54.350;10.102;2023-01-31T15:08:41;8.10;99.90
6293;DHT22;3179;54.350;10.102;2023-01-31T15:11:38;8.10;99.90
6293;DHT22;3179;54.350;10.102;2023-01-31T15:14:28;8.10;99.90
6293;DHT22;3179;54.350;10.102;2023-01-31T15:17:00;8.10;99.90
6293;DHT22;3179;54.350;10.102;2023-01-31T15:19:30;8.20;99.90
6293;DHT22;3179;54.350;10.102;2023-01-31T15:22:03;8.10;99.90
6293;DHT22;3179;54.350;10.102;2023-01-31T15:24:34;8.10;99.90
6293;DHT22;3179;54.350;10.102;2023-01-31T15:27:05;8.10;99.90
6293;DHT22;3179;54.350;10.102;2023-01-31T15:29:46;8.10;99.90
6293;DHT22;3179;54.350;10.102;2023-01-31T15:32:19;8.10;99.90
6293;DHT22;3179;54.350;10.102;2023-01-31T15:34:53;8.10;99.90
6293;DHT22;3179;54.350;10.102;2023-01-31T15:37:24;8.10;99.90
6293;DHT22;3179;54.350;10.102;2023-01-31T15:39:54;8.10;99.90
6293;DHT22;3179;54.350;10.102;2023-01-31T15:42:24;8.10;99.90
6293;DHT22;3179;54.350;10.102;2023-01-31T15:45:13;8.10;99.90
6293;DHT22;3179;54.350;10.102;2023-01-31T15:47:41;8.10;99.90
6293;DHT22;3179;54.350;10.102;2023-01-31T15:50:15;8.10;99.90
6293;DHT22;3179;54.350;10.102;2023-01-31T15:52:42;8.10;99.90
6293;DHT22;3179;54.350;10.102;2023-01-31T15:55:12;8.00;99.90
6293;DHT22;3179;54.350;10.102;2023-01-31T15:57:42;8.00;99.90
6293;DHT22;3179;54.350;10.102;2023-01-31T16:00:17;8.00;99.90
6293;DHT22;3179;54.350;10.102;2023-01-31T16:02:46;8.00;99.90
6293;DHT22;3179;54.350;10.102;2023-01-31T16:05:18;8.00;99.90
6293;DHT22;3179;54.350;10.102;2023-01-31T16:07:45;8.00;99.90
6293;DHT22;3179;54.350;10.102;2023-01-31T16:10:13;8.00;99.90
6293;DHT22;3179;54.350;10.102;2023-01-31T16:12:45;8.10;99.90
6293;DHT22;3179;54.350;10.102;2023-01-31T16:15:17;8.00;99.90
6293;DHT22;3179;54.350;10.102;2023-01-31T16:17:47;8.00;99.90
6293;DHT22;3179;54.350;10.102;2023-01-31T16:20:38;8.00;99.90
6293;DHT22;3179;54.350;10.102;2023-01-31T16:23:27;8.00;99.90
6293;DHT22;3179;54.350;10.102;2023-01-31T16:26:01;8.00;99.90
6293;DHT22;3179;54.350;10.102;2023-01-31T16:28:29;8.00;99.90
6293;DHT22;3179;54.350;10.102;2023-01-31T16:31:05;8.00;99.90
6293;DHT22;3179;54.350;10.102;2023-01-31T16:33:35;8.00;99.90
6293;DHT22;3179;54.350;10.102;2023-01-31T16:36:05;8.00;99.90
6293;DHT22;3179;54.350;10.102;2023-01-31T16:38:33;8.00;99.90